Mount Tabor, Vermont
Current Conditions -  °F | °C
As of 8:55 AM on Thursday 27 Nov 2014 (Local Time) from KRUT Reporting Station
Overcast Overcast  
Wind Chill: -6°   Ceiling: 1200
Heat Index: -3°   Visibility: 10mi
Dew Point: -6°   Wind: 5mph
Humidity: 80%   Direction: 350°N
Pressure: 29.96"   Gusts: NA
Location:  43.3492°N, 72.9643°W
Report Text: KRUT 271355Z 35004KT 10SM OVC012 M03/M06 A2996 RMK AO1
Loading
Personal Weather Stations






























Interactive Weather Map New forecast layout! Learn more

10-Day Weather Forecast

Advertisements
Track Severe Weather on mobile